createdAt,value
2018-08-11T00:01:50.607Z,49.33
2018-08-11T00:02:50.596Z,49.52
2018-08-11T00:04:43.508Z,49.55
2018-08-11T00:05:43.530Z,49.36
2018-08-11T00:07:36.482Z,48.97
2018-08-11T00:08:36.462Z,48.79
2018-08-11T00:10:29.371Z,49.07
2018-08-11T00:11:29.393Z,48.97
2018-08-11T00:13:22.321Z,49.36
2018-08-11T00:14:22.331Z,49.36
2018-08-11T00:16:15.265Z,48.97
2018-08-11T00:17:15.259Z,49.07
2018-08-11T00:19:08.184Z,49.17
2018-08-11T00:20:08.193Z,49.17
2018-08-11T00:22:01.124Z,49.19
2018-08-11T00:23:01.125Z,48.97
2018-08-11T00:24:54.072Z,49.26
2018-08-11T00:25:54.119Z,49.17
2018-08-11T00:27:47.091Z,49.26
2018-08-11T00:28:47.055Z,49.36
2018-08-11T00:30:39.958Z,49.19
2018-08-11T00:31:39.949Z,49.29
2018-08-11T00:33:32.899Z,49.29
2018-08-11T00:34:32.890Z,49.10
2018-08-11T00:36:25.845Z,49.19
2018-08-11T00:37:25.792Z,49.00
2018-08-11T00:39:18.839Z,48.90
2018-08-11T00:40:18.865Z,49.19
2018-08-11T00:42:11.793Z,49.38
2018-08-11T00:43:11.797Z,49.19
2018-08-11T00:45:04.708Z,49.10
2018-08-11T00:46:04.727Z,48.81
2018-08-11T00:47:57.669Z,49.00
2018-08-11T00:48:57.670Z,49.29
2018-08-11T00:50:50.585Z,49.19
2018-08-11T00:51:50.613Z,49.29
2018-08-11T00:53:43.540Z,49.00
2018-08-11T00:54:43.543Z,49.19
2018-08-11T00:56:36.471Z,49.38
2018-08-11T00:57:36.474Z,49.38
2018-08-11T00:59:29.387Z,49.48
2018-08-11T01:00:29.411Z,49.77
2018-08-11T01:02:22.379Z,49.29
2018-08-11T01:03:22.342Z,49.38
2018-08-11T01:05:15.256Z,49.57
2018-08-11T01:06:15.288Z,49.48
2018-08-11T01:08:08.211Z,49.67
2018-08-11T01:09:08.214Z,49.57
2018-08-11T01:11:01.381Z,49.38
2018-08-11T01:12:01.350Z,49.29
2018-08-11T01:13:54.280Z,49.38
2018-08-11T01:14:54.283Z,49.29
2018-08-11T01:16:47.209Z,49.48
2018-08-11T01:17:47.211Z,49.29
2018-08-11T01:19:40.128Z,49.67
2018-08-11T01:20:40.154Z,49.67
2018-08-11T01:22:33.081Z,49.96
2018-08-11T01:23:33.086Z,49.96
2018-08-11T01:25:25.995Z,49.67
2018-08-11T01:26:26.017Z,49.87
2018-08-11T01:28:18.947Z,49.87
2018-08-11T01:29:18.950Z,49.87
2018-08-11T01:31:11.872Z,49.87
2018-08-11T01:32:11.886Z,49.87
2018-08-11T01:34:04.823Z,49.89
2018-08-11T01:35:04.823Z,49.89
2018-08-11T01:36:57.753Z,49.41
2018-08-11T01:37:57.753Z,49.48
2018-08-11T01:39:50.661Z,49.57
2018-08-11T01:40:50.684Z,49.67
2018-08-11T01:42:43.619Z,49.77
2018-08-11T01:43:43.623Z,49.89
2018-08-11T01:45:36.535Z,49.87
2018-08-11T01:46:36.554Z,50.63
2018-08-11T01:48:29.485Z,50.92
2018-08-11T01:49:29.489Z,50.82
2018-08-11T01:51:22.397Z,51.88
2018-08-11T01:52:22.420Z,52.08
2018-08-11T01:54:15.352Z,53.03
2018-08-11T01:55:15.355Z,53.61
2018-08-11T01:57:08.284Z,54.67
2018-08-11T01:58:08.285Z,55.34
2018-08-11T02:00:01.222Z,56.88
2018-08-11T02:01:01.221Z,56.59
2018-08-11T02:02:54.173Z,58.32
2018-08-11T02:03:54.158Z,58.13
2018-08-11T02:05:47.081Z,59.86
2018-08-11T02:06:47.097Z,60.43
2018-08-11T02:08:40.049Z,61.20
2018-08-11T02:09:40.037Z,63.22
2018-08-11T02:11:32.956Z,65.20
2018-08-11T02:12:32.967Z,65.97
2018-08-11T02:14:25.900Z,66.84
2018-08-11T02:15:25.902Z,67.00
2018-08-11T02:17:18.962Z,68.53
2018-08-11T02:18:18.983Z,69.97
2018-08-11T02:20:11.934Z,71.09
2018-08-11T02:21:11.938Z,70.99
2018-08-11T02:23:04.869Z,73.20
2018-08-11T02:24:04.872Z,74.06
2018-08-11T02:25:57.782Z,74.26
2018-08-11T02:26:57.803Z,75.40
2018-08-11T02:28:50.735Z,75.12
2018-08-11T02:29:50.737Z,75.60
2018-08-11T02:31:43.648Z,76.42
2018-08-11T02:32:43.667Z,76.81
2018-08-11T02:34:36.610Z,77.29
2018-08-11T02:35:36.610Z,77.19
2018-08-11T02:37:29.517Z,77.19
2018-08-11T02:38:29.539Z,77.58
2018-08-11T02:40:22.468Z,77.86
2018-08-11T02:41:22.472Z,78.25
2018-08-11T02:43:15.401Z,78.25
2018-08-11T02:44:15.404Z,78.25
2018-08-11T02:46:08.309Z,78.92
2018-08-11T02:47:08.330Z,78.92
2018-08-11T02:49:01.271Z,78.92
2018-08-11T02:50:01.275Z,78.34
2018-08-11T02:51:54.624Z,78.15
2018-08-11T02:52:54.632Z,77.95
2018-08-11T02:54:47.566Z,78.69
2018-08-11T02:55:47.565Z,78.59
2018-08-11T02:57:40.477Z,79.36
2018-08-11T02:58:40.493Z,79.36
2018-08-11T03:00:33.422Z,80.18
2018-08-11T03:01:33.421Z,80.94
2018-08-11T03:03:26.349Z,80.94
2018-08-11T03:04:26.352Z,81.71
2018-08-11T03:06:19.256Z,80.85
2018-08-11T03:07:19.279Z,81.13
2018-08-11T03:09:12.208Z,81.52
2018-08-11T03:10:12.219Z,81.81
2018-08-11T03:12:05.123Z,81.04
2018-08-11T03:13:05.151Z,81.52
2018-08-11T03:14:58.073Z,81.90
2018-08-11T03:15:58.078Z,82.09
2018-08-11T03:17:50.984Z,82.48
2018-08-11T03:18:51.003Z,82.57
2018-08-11T03:20:43.938Z,82.19
2018-08-11T03:21:43.936Z,82.19
2018-08-11T03:23:37.033Z,82.48
2018-08-11T03:24:37.029Z,82.76
2018-08-11T03:26:29.955Z,82.09
2018-08-11T03:27:29.961Z,81.71
2018-08-11T03:29:23.882Z,82.00
2018-08-11T03:30:23.881Z,82.19
2018-08-11T03:32:16.797Z,82.29
2018-08-11T03:33:16.809Z,82.19
2018-08-11T03:35:09.738Z,82.19
2018-08-11T03:36:09.762Z,82.00
2018-08-11T03:38:02.643Z,82.00
2018-08-11T03:39:02.664Z,82.19
2018-08-11T03:40:55.590Z,82.19
2018-08-11T03:41:55.592Z,81.52
2018-08-11T03:43:48.573Z,82.19
2018-08-11T03:44:48.519Z,82.19
2018-08-11T03:46:41.428Z,82.15
2018-08-11T03:47:41.451Z,82.43
2018-08-11T03:49:34.387Z,82.15
2018-08-11T03:50:34.390Z,81.67
2018-08-11T03:52:27.371Z,81.77
2018-08-11T03:53:27.326Z,82.43
2018-08-11T03:55:20.249Z,82.24
2018-08-11T03:56:20.252Z,82.43
2018-08-11T03:58:13.156Z,82.53
2018-08-11T03:59:13.177Z,83.68
2018-08-11T04:01:06.103Z,83.30
2018-08-11T04:02:06.113Z,83.39
2018-08-11T04:03:59.033Z,84.06
2018-08-11T04:04:59.035Z,84.74
2018-08-11T04:06:51.946Z,84.92
2018-08-11T04:07:51.968Z,85.41
2018-08-11T04:09:44.895Z,85.79
2018-08-11T04:10:44.893Z,85.50
2018-08-11T04:12:37.801Z,85.69
2018-08-11T04:13:37.821Z,85.79
2018-08-11T04:15:30.754Z,85.41
2018-08-11T04:16:30.756Z,84.83
2018-08-11T04:18:23.660Z,84.55
2018-08-11T04:19:23.682Z,84.55
2018-08-11T04:21:16.611Z,85.12
2018-08-11T04:22:16.690Z,84.83
2018-08-11T04:24:09.559Z,85.60
2018-08-11T04:25:09.539Z,85.17
2018-08-11T04:27:02.479Z,85.27
2018-08-11T04:28:02.481Z,85.21
2018-08-11T04:29:55.420Z,84.79
2018-08-11T04:30:55.411Z,85.36
2018-08-11T04:32:48.328Z,85.27
2018-08-11T04:33:48.337Z,84.88
2018-08-11T04:35:41.308Z,85.08
2018-08-11T04:36:41.289Z,85.55
2018-08-11T04:38:34.181Z,85.17
2018-08-11T04:39:34.204Z,85.27
2018-08-11T04:41:27.138Z,84.79
2018-08-11T04:42:27.137Z,85.08
2018-08-11T04:44:20.061Z,84.88
2018-08-11T04:45:20.060Z,84.98
2018-08-11T04:47:12.964Z,85.36
2018-08-11T04:48:12.985Z,85.17
2018-08-11T04:50:05.916Z,85.17
2018-08-11T04:51:05.918Z,85.17
2018-08-11T04:52:58.825Z,84.98
2018-08-11T04:53:58.847Z,85.84
2018-08-11T04:55:51.774Z,85.21
2018-08-11T04:56:51.774Z,84.45
2018-08-11T04:58:44.679Z,84.88
2018-08-11T04:59:44.700Z,84.11
2018-08-11T05:01:37.630Z,82.67
2018-08-11T05:02:37.630Z,82.38
2018-08-11T05:04:30.562Z,81.62
2018-08-11T05:05:30.562Z,81.43
2018-08-11T05:07:23.470Z,81.66
2018-08-11T05:08:23.495Z,81.85
2018-08-11T05:10:16.421Z,81.66
2018-08-11T05:11:16.420Z,80.99
2018-08-11T05:13:09.326Z,80.79
2018-08-11T05:14:09.349Z,80.94
2018-08-11T05:16:02.280Z,80.85
2018-08-11T05:17:02.277Z,80.76
2018-08-11T05:18:55.182Z,81.04
2018-08-11T05:19:55.246Z,80.99
2018-08-11T05:21:48.136Z,81.27
2018-08-11T05:22:48.137Z,81.08
2018-08-11T05:24:41.065Z,81.18
2018-08-11T05:25:41.067Z,80.79
2018-08-11T05:27:33.976Z,80.51
2018-08-11T05:28:33.997Z,80.79
2018-08-11T05:30:26.923Z,80.41
2018-08-11T05:31:26.926Z,80.41
2018-08-11T05:33:19.939Z,80.60
2018-08-11T05:34:19.856Z,81.18
2018-08-11T05:36:12.787Z,80.41
2018-08-11T05:37:12.790Z,81.08
2018-08-11T05:39:05.696Z,80.83
2018-08-11T05:40:05.717Z,81.75
2018-08-11T05:41:58.650Z,80.99
2018-08-11T05:42:58.659Z,81.37
2018-08-11T05:44:51.593Z,81.02
2018-08-11T05:45:51.594Z,81.31
2018-08-11T05:47:44.500Z,81.51
2018-08-11T05:48:44.519Z,81.22
2018-08-11T05:50:37.453Z,81.22
2018-08-11T05:51:37.459Z,81.02
2018-08-11T05:53:30.369Z,81.02
2018-08-11T05:54:30.397Z,81.02
2018-08-11T05:56:23.324Z,80.83
2018-08-11T05:57:23.327Z,80.64
2018-08-11T05:59:16.235Z,80.83
2018-08-11T06:00:16.258Z,81.12
2018-08-11T06:02:09.184Z,80.68
2018-08-11T06:03:09.189Z,80.49
2018-08-11T06:05:02.123Z,80.30
2018-08-11T06:06:02.124Z,80.30
2018-08-11T06:07:55.044Z,79.34
2018-08-11T06:08:55.060Z,79.53
2018-08-11T06:10:48.001Z,78.86
2018-08-11T06:11:48.001Z,78.77
2018-08-11T06:13:40.906Z,78.96
2018-08-11T06:14:40.928Z,79.24
2018-08-11T06:16:33.864Z,79.34
2018-08-11T06:17:33.862Z,79.24
2018-08-11T06:19:26.774Z,78.86
2018-08-11T06:20:26.798Z,78.28
2018-08-11T06:22:19.731Z,78.03
2018-08-11T06:23:19.733Z,78.00
2018-08-11T06:25:12.664Z,78.23
2018-08-11T06:26:12.668Z,78.23
2018-08-11T06:28:05.582Z,77.56
2018-08-11T06:29:05.610Z,76.69
2018-08-11T06:30:58.536Z,76.79
2018-08-11T06:31:58.617Z,77.17
2018-08-11T06:33:51.451Z,77.46
2018-08-11T06:34:51.476Z,76.50
2018-08-11T06:36:44.406Z,76.79
2018-08-11T06:37:44.411Z,77.26
2018-08-11T06:39:37.373Z,76.40
2018-08-11T06:40:37.472Z,77.36
2018-08-11T06:42:30.336Z,77.26
2018-08-11T06:43:30.340Z,77.36
2018-08-11T06:45:23.267Z,77.08
2018-08-11T06:46:23.267Z,76.40
2018-08-11T06:48:17.174Z,77.08
2018-08-11T06:49:17.200Z,76.40
2018-08-11T06:51:10.136Z,76.40
2018-08-11T06:52:10.133Z,76.59
2018-08-11T06:54:03.050Z,76.64
2018-08-11T06:55:03.081Z,76.44
2018-08-11T06:56:56.005Z,73.92
2018-08-11T06:57:56.013Z,72.77
2018-08-11T06:59:48.925Z,70.40
2018-08-11T07:00:48.955Z,69.73
2018-08-11T07:02:41.887Z,70.34
2018-08-11T07:03:41.896Z,68.99
2018-08-11T07:05:34.839Z,68.13
2018-08-11T07:06:34.909Z,67.10
2018-08-11T07:08:27.765Z,66.91
2018-08-11T07:09:27.798Z,66.14
2018-08-11T07:11:20.739Z,66.91
2018-08-11T07:12:20.760Z,66.14
2018-08-11T07:14:13.664Z,66.04
2018-08-11T07:15:13.739Z,65.56
2018-08-11T07:17:06.635Z,66.33
2018-08-11T07:18:06.640Z,65.85
2018-08-11T07:19:59.560Z,66.04
2018-08-11T07:20:59.587Z,66.81
2018-08-11T07:22:52.519Z,65.37
2018-08-11T07:23:52.536Z,65.75
2018-08-11T07:25:45.545Z,65.85
2018-08-11T07:26:45.466Z,65.08
2018-08-11T07:28:38.387Z,65.75
2018-08-11T07:29:38.413Z,65.63
2018-08-11T07:31:31.347Z,66.01
2018-08-11T07:32:31.357Z,66.10
2018-08-11T07:34:24.262Z,67.16
2018-08-11T07:35:24.288Z,67.07
2018-08-11T07:37:17.240Z,67.07
2018-08-11T07:38:17.237Z,66.78
2018-08-11T07:40:10.159Z,66.20
2018-08-11T07:41:10.185Z,66.78
2018-08-11T07:43:03.127Z,66.84
2018-08-11T07:44:03.127Z,67.32
2018-08-11T07:45:56.041Z,67.29
2018-08-11T07:46:56.070Z,67.96
2018-08-11T07:48:49.001Z,68.06
2018-08-11T07:49:49.004Z,68.38
2018-08-11T07:51:41.939Z,68.67
2018-08-11T07:52:41.948Z,67.77
2018-08-11T07:54:34.856Z,67.13
2018-08-11T07:55:34.881Z,66.55
2018-08-11T07:57:27.824Z,66.84
2018-08-11T07:58:27.826Z,67.42
2018-08-11T08:00:20.736Z,67.03
2018-08-11T08:01:20.785Z,67.16
2018-08-11T08:03:13.880Z,66.01
2018-08-11T08:04:13.889Z,65.24
2018-08-11T08:06:06.799Z,64.56
2018-08-11T08:07:06.822Z,65.05
2018-08-11T08:08:59.756Z,64.34
2018-08-11T08:09:59.757Z,65.91
2018-08-11T08:11:52.695Z,64.86
2018-08-11T08:12:52.702Z,64.08
2018-08-11T08:14:45.611Z,65.05
2018-08-11T08:15:45.633Z,64.56
2018-08-11T08:17:39.563Z,63.41
2018-08-11T08:18:39.566Z,62.45
2018-08-11T08:20:32.481Z,63.41
2018-08-11T08:21:32.505Z,63.22
2018-08-11T08:23:25.439Z,62.06
2018-08-11T08:24:25.444Z,62.16
2018-08-11T08:26:18.504Z,62.96
2018-08-11T08:27:18.378Z,61.80
2018-08-11T08:29:11.328Z,61.04
2018-08-11T08:30:11.323Z,62.19
2018-08-11T08:32:04.752Z,60.30
2018-08-11T08:33:04.758Z,59.20
2018-08-11T08:34:57.887Z,60.46
2018-08-11T08:35:57.915Z,59.69
2018-08-11T08:37:50.848Z,59.37
2018-08-11T08:38:50.851Z,60.62
2018-08-11T08:40:43.769Z,60.94
2018-08-11T08:41:43.841Z,61.71
2018-08-11T08:43:36.728Z,60.77
2018-08-11T08:44:36.737Z,60.00
2018-08-11T08:46:29.650Z,59.23
2018-08-11T08:47:29.687Z,59.88
2018-08-11T08:49:22.611Z,60.17
2018-08-11T08:50:22.624Z,59.97
2018-08-11T08:52:15.557Z,59.78
2018-08-11T08:53:15.605Z,59.40
2018-08-11T08:55:08.471Z,59.33
2018-08-11T08:56:08.496Z,60.10
2018-08-11T08:58:01.430Z,58.08
2018-08-11T08:59:01.439Z,57.79
2018-08-11T09:00:54.351Z,57.50
2018-08-11T09:01:54.383Z,57.79
2018-08-11T09:03:47.325Z,57.02
2018-08-11T09:04:47.333Z,56.82
2018-08-11T09:06:40.245Z,57.02
2018-08-11T09:07:40.278Z,57.79
2018-08-11T09:09:33.217Z,56.35
2018-08-11T09:10:33.217Z,56.15
2018-08-11T09:12:26.152Z,56.37
2018-08-11T09:13:26.161Z,56.66
2018-08-11T09:15:19.081Z,54.83
2018-08-11T09:16:19.102Z,53.58
2018-08-11T09:18:12.039Z,54.93
2018-08-11T09:19:12.045Z,54.64
2018-08-11T09:21:04.957Z,53.70
2018-08-11T09:22:04.986Z,53.22
2018-08-11T09:23:57.918Z,53.31
2018-08-11T09:24:57.929Z,53.29
2018-08-11T09:26:50.842Z,52.33
2018-08-11T09:27:50.870Z,51.65
2018-08-11T09:29:43.807Z,53.51
2018-08-11T09:30:43.814Z,53.13
2018-08-11T09:32:36.750Z,53.51
2018-08-11T09:33:36.759Z,53.31
2018-08-11T09:35:29.672Z,52.16
2018-08-11T09:36:29.702Z,51.97
2018-08-11T09:38:22.685Z,51.29
2018-08-11T09:39:22.643Z,50.78
2018-08-11T09:41:15.556Z,50.88
2018-08-11T09:42:15.586Z,51.84
2018-08-11T09:44:08.518Z,52.49
2018-08-11T09:45:08.523Z,53.07
2018-08-11T09:47:01.439Z,52.78
2018-08-11T09:48:01.470Z,53.07
2018-08-11T09:49:54.401Z,53.07
2018-08-11T09:50:54.403Z,53.81
2018-08-11T09:52:47.340Z,53.84
2018-08-11T09:53:47.342Z,53.65
2018-08-11T09:55:40.258Z,52.04
2018-08-11T09:56:40.281Z,51.84
2018-08-11T09:58:33.229Z,50.98
2018-08-11T09:59:33.229Z,53.39
2018-08-11T10:01:26.141Z,50.90
2018-08-11T10:02:26.169Z,50.74
2018-08-11T10:04:19.113Z,48.52
2018-08-11T10:05:19.112Z,47.48
2018-08-11T10:07:12.028Z,47.09
2018-08-11T10:08:12.058Z,46.81
2018-08-11T10:10:04.992Z,47.00
2018-08-11T10:11:05.003Z,46.51
2018-08-11T10:12:57.936Z,46.69
2018-08-11T10:13:57.944Z,48.03
2018-08-11T10:15:50.859Z,46.97
2018-08-11T10:16:50.889Z,48.90
2018-08-11T10:18:43.821Z,49.19
2018-08-11T10:19:43.824Z,49.00
2018-08-11T10:21:36.741Z,48.52
2018-08-11T10:22:36.771Z,49.39
2018-08-11T10:24:29.703Z,49.80
2018-08-11T10:25:29.712Z,49.22
2018-08-11T10:27:22.628Z,46.90
2018-08-11T10:28:22.655Z,47.55
2018-08-11T10:30:15.639Z,46.97
2018-08-11T10:31:15.593Z,45.62
2018-08-11T10:33:08.532Z,46.78
2018-08-11T10:34:08.540Z,46.49
2018-08-11T10:36:01.462Z,46.78
2018-08-11T10:37:01.484Z,46.88
2018-08-11T10:38:54.422Z,45.92
2018-08-11T10:39:54.447Z,46.11
2018-08-11T10:41:47.342Z,46.78
2018-08-11T10:42:47.370Z,46.49
2018-08-11T10:44:40.300Z,47.72
2018-08-11T10:45:40.311Z,47.85
2018-08-11T10:47:33.224Z,49.96
2018-08-11T10:48:33.253Z,49.12
2018-08-11T10:50:26.186Z,46.71
2018-08-11T10:51:26.194Z,46.13
2018-08-11T10:53:19.136Z,44.59
2018-08-11T10:54:19.139Z,44.27
2018-08-11T10:56:12.053Z,45.14
2018-08-11T10:57:12.084Z,46.11
2018-08-11T10:59:05.027Z,46.86
2018-08-11T11:00:05.041Z,46.47
2018-08-11T11:01:57.956Z,47.31
2018-08-11T11:02:57.978Z,48.38
2018-08-11T11:04:50.911Z,48.47
2018-08-11T11:05:50.920Z,49.53
2018-08-11T11:07:43.831Z,48.88
2018-08-11T11:08:43.860Z,47.34
2018-08-11T11:10:36.792Z,47.75
2018-08-11T11:11:36.795Z,46.20
2018-08-11T11:13:29.733Z,44.87
2018-08-11T11:14:29.735Z,44.39
2018-08-11T11:16:22.650Z,44.68
2018-08-11T11:17:22.674Z,44.10
2018-08-11T11:19:15.614Z,44.22
2018-08-11T11:20:15.619Z,43.06
2018-08-11T11:22:08.540Z,41.91
2018-08-11T11:23:08.560Z,42.68
2018-08-11T11:25:01.497Z,44.60
2018-08-11T11:26:01.500Z,43.57
2018-08-11T11:27:54.419Z,41.75
2018-08-11T11:28:54.447Z,41.08
2018-08-11T11:30:47.379Z,41.66
2018-08-11T11:31:47.389Z,41.08
2018-08-11T11:33:44.976Z,41.17
2018-08-11T11:34:40.333Z,42.04
2018-08-11T11:36:33.246Z,41.48
2018-08-11T11:37:33.277Z,40.40
2018-08-11T11:39:26.219Z,41.63
2018-08-11T11:40:26.220Z,42.21
2018-08-11T11:42:19.135Z,42.48
2018-08-11T11:43:19.190Z,43.16
2018-08-11T11:45:12.109Z,43.57
2018-08-11T11:46:12.112Z,43.64
2018-08-11T11:48:05.037Z,42.10
2018-08-11T11:49:05.061Z,42.10
2018-08-11T11:50:58.013Z,43.37
2018-08-11T11:51:58.063Z,42.21
2018-08-11T11:53:50.951Z,41.63
2018-08-11T11:54:50.961Z,41.73
2018-08-11T11:56:43.878Z,41.63
2018-08-11T11:57:43.903Z,42.12
2018-08-11T11:59:36.848Z,41.63
2018-08-11T12:00:36.852Z,41.63
2018-08-11T12:02:30.261Z,41.81
2018-08-11T12:03:30.290Z,42.29
2018-08-11T12:05:23.225Z,42.39
2018-08-11T12:06:23.233Z,42.48
2018-08-11T12:08:16.147Z,42.87
2018-08-11T12:09:16.178Z,42.29
2018-08-11T12:11:09.113Z,42.68
2018-08-11T12:12:09.126Z,40.36
2018-08-11T12:14:02.063Z,42.08
2018-08-11T12:15:02.072Z,41.78
2018-08-11T12:16:54.982Z,41.11
2018-08-11T12:17:55.007Z,41.60
2018-08-11T12:19:47.945Z,42.63
2018-08-11T12:20:47.953Z,42.75
2018-08-11T12:22:40.951Z,42.93
2018-08-11T12:23:40.895Z,42.73
2018-08-11T12:25:33.836Z,43.04
2018-08-11T12:26:33.842Z,43.43
2018-08-11T12:28:26.756Z,43.72
2018-08-11T12:29:26.786Z,43.33
2018-08-11T12:31:22.108Z,43.16
2018-08-11T12:32:19.727Z,43.35
2018-08-11T12:34:12.715Z,43.08
2018-08-11T12:35:12.674Z,42.41
2018-08-11T12:37:05.616Z,41.66
2018-08-11T12:38:05.644Z,41.46
2018-08-11T12:39:58.590Z,39.92
2018-08-11T12:40:58.600Z,40.96
2018-08-11T12:42:51.506Z,40.09
2018-08-11T12:43:51.535Z,39.53
2018-08-11T12:45:44.506Z,39.04
2018-08-11T12:46:44.480Z,39.72
2018-08-11T12:48:37.391Z,38.93
2018-08-11T12:49:37.418Z,39.51
2018-08-11T12:51:30.356Z,41.05
2018-08-11T12:52:30.364Z,40.28
2018-08-11T12:54:23.337Z,40.28
2018-08-11T12:55:23.308Z,40.50
2018-08-11T12:57:16.231Z,39.04
2018-08-11T12:58:16.257Z,39.16
2018-08-11T13:00:09.195Z,38.58
2018-08-11T13:01:09.204Z,38.68
2018-08-11T13:03:02.121Z,38.50
2018-08-11T13:04:02.149Z,37.92
2018-08-11T13:05:55.097Z,37.54
2018-08-11T13:06:55.156Z,37.73
2018-08-11T13:08:48.019Z,37.94
2018-08-11T13:09:48.044Z,37.05
2018-08-11T13:11:41.030Z,37.15
2018-08-11T13:12:40.995Z,37.13
2018-08-11T13:14:33.934Z,37.42
2018-08-11T13:15:33.942Z,37.71
2018-08-11T13:17:26.856Z,37.71
2018-08-11T13:18:26.965Z,37.42
2018-08-11T13:20:19.829Z,37.44
2018-08-11T13:21:19.848Z,37.24
2018-08-11T13:23:12.753Z,36.84
2018-08-11T13:24:12.784Z,37.23
2018-08-11T13:26:05.720Z,38.20
2018-08-11T13:27:05.728Z,37.81
2018-08-11T13:28:58.645Z,37.34
2018-08-11T13:29:58.674Z,37.24
2018-08-11T13:31:51.610Z,37.44
2018-08-11T13:32:51.620Z,37.15
2018-08-11T13:34:44.566Z,37.15
2018-08-11T13:35:44.566Z,37.44
2018-08-11T13:37:37.481Z,36.96
2018-08-11T13:38:37.550Z,36.74
2018-08-11T13:40:30.444Z,37.71
2018-08-11T13:41:30.452Z,37.23
2018-08-11T13:43:23.376Z,37.40
2018-08-11T13:44:23.397Z,37.96
2018-08-11T13:46:16.340Z,38.37
2018-08-11T13:47:16.348Z,39.34
2018-08-11T13:49:09.267Z,37.98
2018-08-11T13:50:09.297Z,37.62
2018-08-11T13:52:02.240Z,37.42
2018-08-11T13:53:02.243Z,37.52
2018-08-11T13:54:55.159Z,37.34
2018-08-11T13:55:55.189Z,37.15
2018-08-11T13:57:48.128Z,36.16
2018-08-11T13:58:48.134Z,36.46
2018-08-11T14:00:41.071Z,36.47
2018-08-11T14:01:41.083Z,36.38
2018-08-11T14:03:34.001Z,36.20
2018-08-11T14:04:34.027Z,36.08
2018-08-11T14:06:26.963Z,35.33
2018-08-11T14:07:27.009Z,35.21
2018-08-11T14:09:19.889Z,35.41
2018-08-11T14:10:19.920Z,35.42
2018-08-11T14:12:12.865Z,35.42
2018-08-11T14:13:12.867Z,35.21
2018-08-11T14:15:05.877Z,35.60
2018-08-11T14:16:05.817Z,35.80
2018-08-11T14:17:58.759Z,35.70
2018-08-11T14:18:58.767Z,35.99
2018-08-11T14:20:51.718Z,36.18
2018-08-11T14:21:51.725Z,36.18
2018-08-11T14:23:44.642Z,35.31
2018-08-11T14:24:44.671Z,34.44
2018-08-11T14:26:37.608Z,34.83
2018-08-11T14:27:37.616Z,34.23
2018-08-11T14:29:30.531Z,36.08
2018-08-11T14:30:30.562Z,35.70
2018-08-11T14:32:23.506Z,35.04
2018-08-11T14:33:23.508Z,34.45
2018-08-11T14:35:16.427Z,33.60
2018-08-11T14:36:16.456Z,33.39
2018-08-11T14:38:09.391Z,34.36
2018-08-11T14:39:09.402Z,34.07
2018-08-11T14:41:02.346Z,34.07
2018-08-11T14:42:02.345Z,33.12
2018-08-11T14:43:55.264Z,32.73
2018-08-11T14:44:55.295Z,32.92
2018-08-11T14:46:49.239Z,32.92
2018-08-11T14:47:49.262Z,32.92
2018-08-11T14:49:42.165Z,33.10
2018-08-11T14:50:42.273Z,33.69
2018-08-11T14:52:35.133Z,33.87
2018-08-11T14:53:35.142Z,34.07
2018-08-11T14:55:28.059Z,34.36
2018-08-11T14:56:28.090Z,33.78
2018-08-11T14:58:21.034Z,32.91
2018-08-11T14:59:21.035Z,32.42
2018-08-11T15:01:13.983Z,32.41
2018-08-11T15:02:13.988Z,32.70
2018-08-11T15:04:06.911Z,32.79
2018-08-11T15:05:06.935Z,33.37
2018-08-11T15:06:59.878Z,33.09
2018-08-11T15:07:59.883Z,32.89
2018-08-11T15:09:52.846Z,33.09
2018-08-11T15:10:52.833Z,33.09
2018-08-11T15:12:45.778Z,32.70
2018-08-11T15:13:45.778Z,32.79
2018-08-11T15:15:38.920Z,32.70
2018-08-11T15:16:38.949Z,33.09
2018-08-11T15:18:31.905Z,32.70
2018-08-11T15:19:31.914Z,33.09
2018-08-11T15:21:26.081Z,32.70
2018-08-11T15:22:26.086Z,32.59
2018-08-11T15:24:19.221Z,32.97
2018-08-11T15:25:19.247Z,33.55
2018-08-11T15:27:12.194Z,33.26
2018-08-11T15:28:12.194Z,33.65
2018-08-11T15:30:05.114Z,34.04
2018-08-11T15:31:05.146Z,34.04
2018-08-11T15:32:58.075Z,33.36
2018-08-11T15:33:58.086Z,33.17
2018-08-11T15:35:51.007Z,33.37
2018-08-11T15:36:51.032Z,33.18
2018-08-11T15:38:43.985Z,33.09
2018-08-11T15:39:43.978Z,32.89
2018-08-11T15:41:36.913Z,31.34
2018-08-11T15:42:36.923Z,32.12
2018-08-11T15:44:29.845Z,30.47
2018-08-11T15:47:22.799Z,30.58
2018-08-11T15:48:22.808Z,30.47
2018-08-11T15:50:15.727Z,30.68
2018-08-11T15:51:15.754Z,31.05
2018-08-11T15:53:08.701Z,30.20
2018-08-11T15:54:08.761Z,30.58
2018-08-11T15:56:02.169Z,29.71
2018-08-11T15:57:01.800Z,28.75
2018-08-11T15:58:54.598Z,30.00
2018-08-11T15:59:54.610Z,29.92
2018-08-11T16:01:47.545Z,29.53
2018-08-11T16:02:47.551Z,29.34
2018-08-11T16:04:40.467Z,28.38
2018-08-11T16:05:40.497Z,28.76
2018-08-11T16:07:33.440Z,27.98
2018-08-11T16:08:33.440Z,27.70
2018-08-11T16:10:26.360Z,27.31
2018-08-11T16:11:26.388Z,27.39
2018-08-11T16:13:19.334Z,27.57
2018-08-11T16:14:19.338Z,27.28
2018-08-11T16:16:12.253Z,28.73
2018-08-11T16:17:12.284Z,29.60
2018-08-11T16:19:05.222Z,28.64
2018-08-11T16:20:05.228Z,28.62
2018-08-11T16:21:58.172Z,29.30
2018-08-11T16:22:58.178Z,29.86
2018-08-11T16:24:51.088Z,29.49
2018-08-11T16:25:51.118Z,29.96
2018-08-11T16:27:44.054Z,30.73
2018-08-11T16:28:44.062Z,31.51
2018-08-11T16:30:36.976Z,31.41
2018-08-11T16:31:37.006Z,31.51
2018-08-11T16:33:30.123Z,32.09
2018-08-11T16:34:30.128Z,32.38
2018-08-11T16:36:23.046Z,32.59
2018-08-11T16:37:23.076Z,32.01
2018-08-11T16:39:16.013Z,31.43
2018-08-11T16:40:16.020Z,31.04
2018-08-11T16:42:08.956Z,30.96
2018-08-11T16:43:08.963Z,30.86
2018-08-11T16:45:01.894Z,31.05
2018-08-11T16:46:01.921Z,31.25
2018-08-11T16:47:54.929Z,30.86
2018-08-11T16:48:54.865Z,31.43
2018-08-11T16:50:47.790Z,31.23
2018-08-11T16:51:47.818Z,31.52
2018-08-11T16:53:40.758Z,32.39
2018-08-11T16:54:40.765Z,32.68
2018-08-11T16:56:33.698Z,31.89
2018-08-11T16:57:33.708Z,31.41
2018-08-11T16:59:26.689Z,31.33
2018-08-11T17:00:26.652Z,31.33
2018-08-11T17:02:19.586Z,31.43
2018-08-11T17:03:19.597Z,32.20
2018-08-11T17:05:12.525Z,32.49
2018-08-11T17:06:12.546Z,32.47
2018-08-11T17:08:05.477Z,32.59
2018-08-11T17:09:05.486Z,32.57
2018-08-11T17:10:58.414Z,32.96
2018-08-11T17:11:58.441Z,32.67
2018-08-11T17:13:51.396Z,32.56
2018-08-11T17:14:51.498Z,32.94
2018-08-11T17:16:44.302Z,33.81
2018-08-11T17:17:44.330Z,34.00
2018-08-11T17:19:37.274Z,34.10
2018-08-11T17:20:37.300Z,33.81
2018-08-11T17:22:30.214Z,34.10
2018-08-11T17:23:30.221Z,34.20
2018-08-11T17:25:23.130Z,33.23
2018-08-11T17:26:23.163Z,33.33
2018-08-11T17:28:16.092Z,32.84
2018-08-11T17:29:16.097Z,33.14
2018-08-11T17:31:09.012Z,33.04
2018-08-11T17:32:09.055Z,32.94
2018-08-11T17:34:01.974Z,33.52
2018-08-11T17:35:01.985Z,33.81
2018-08-11T17:36:54.903Z,33.81
2018-08-11T17:37:54.929Z,33.98
2018-08-11T17:39:47.881Z,33.89
2018-08-11T17:40:47.876Z,34.28
2018-08-11T17:42:40.813Z,34.47
2018-08-11T17:43:40.816Z,33.98
2018-08-11T17:45:33.732Z,34.28
2018-08-11T17:46:33.760Z,34.56
2018-08-11T17:48:26.705Z,35.14
2018-08-11T17:49:26.704Z,34.56
2018-08-11T17:51:19.615Z,35.05
2018-08-11T17:52:19.644Z,34.86
2018-08-11T17:54:12.579Z,34.95
2018-08-11T17:55:12.585Z,34.86
2018-08-11T17:57:05.498Z,34.47
2018-08-11T17:58:05.521Z,34.86
2018-08-11T17:59:58.461Z,34.76
2018-08-11T18:00:58.469Z,34.47
2018-08-11T18:02:51.414Z,34.08
2018-08-11T18:03:51.416Z,34.36
2018-08-11T18:05:44.340Z,34.55
2018-08-11T18:06:44.363Z,34.74
2018-08-11T18:08:37.294Z,35.13
2018-08-11T18:09:37.299Z,35.32
2018-08-11T18:11:30.214Z,34.84
2018-08-11T18:12:30.245Z,34.84
2018-08-11T18:14:23.175Z,34.86
2018-08-11T18:15:23.185Z,34.86
2018-08-11T18:17:16.094Z,34.76
2018-08-11T18:18:16.118Z,34.28
2018-08-11T18:20:09.052Z,34.58
2018-08-11T18:21:09.066Z,34.10
2018-08-11T18:23:01.998Z,33.54
2018-08-11T18:24:02.004Z,34.00
2018-08-11T18:25:54.918Z,34.10
2018-08-11T18:26:54.945Z,34.39
2018-08-11T18:28:47.879Z,33.72
2018-08-11T18:29:47.889Z,33.91
2018-08-11T18:31:40.806Z,35.14
2018-08-11T18:32:40.830Z,35.34
2018-08-11T18:34:33.820Z,35.90
2018-08-11T18:35:33.778Z,36.29